Time;durP1;ratioP1;P1;durP2;ratioP2;P2;SDS_P1;SDS_P2;PMS_P1;PMS_P2;Temp;Humidity;BMP_temperature;BMP_pressure;BME280_temperature;BME280_humidity;BME280_pressure;Samples;Min_cycle;Max_cycle;Signal;HPM_P1;HPM_P2
2022/05/22 00:02:25;;;;;;;8.65;2.38;;;11.50;99.90;;;;;;5027792;28;20080;-67
2022/05/22 00:04:50;;;;;;;9.98;2.70;;;11.60;99.90;;;;;;5027341;28;20057;-66
2022/05/22 00:07:16;;;;;;;8.63;3.10;;;11.50;99.90;;;;;;5028654;28;20541;-66
2022/05/22 00:09:42;;;;;;;8.25;2.20;;;11.50;99.90;;;;;;5028121;28;20134;-67
2022/05/22 00:12:09;;;;;;;7.80;2.20;;;11.50;99.90;;;;;;5028102;28;20057;-66
2022/05/22 00:14:35;;;;;;;8.23;2.20;;;11.50;99.90;;;;;;5028062;28;20037;-67
2022/05/22 00:17:01;;;;;;;10.88;2.90;;;11.50;99.90;;;;;;5028566;28;20087;-68
2022/05/22 00:19:31;;;;;;;7.60;2.17;;;11.50;99.90;;;;;;5027053;28;20088;-68
2022/05/22 00:21:57;;;;;;;5.15;1.73;;;11.40;99.90;;;;;;5027944;28;20041;-66
2022/05/22 00:24:26;;;;;;;9.02;2.33;;;11.40;99.90;;;;;;5027601;28;20029;-67
2022/05/22 00:26:52;;;;;;;7.25;2.45;;;11.30;99.90;;;;;;5022063;28;20033;-67
2022/05/22 00:29:18;;;;;;;7.50;2.17;;;11.30;99.90;;;;;;5022519;28;20046;-67
2022/05/22 00:31:45;;;;;;;9.82;2.47;;;11.30;99.90;;;;;;5018089;28;20507;-66
2022/05/22 00:34:11;;;;;;;9.55;2.05;;;11.30;99.90;;;;;;5022626;28;20512;-70
2022/05/22 00:36:38;;;;;;;7.10;2.10;;;11.20;99.90;;;;;;5017026;28;20088;-66
2022/05/22 00:39:04;;;;;;;7.43;2.33;;;11.20;99.90;;;;;;5023838;28;20033;-66
2022/05/22 00:41:31;;;;;;;8.77;2.33;;;11.20;99.90;;;;;;5027611;28;20137;-67
2022/05/22 00:43:57;;;;;;;7.95;2.40;;;11.20;99.90;;;;;;5027855;28;20038;-66
2022/05/22 00:46:24;;;;;;;12.43;2.40;;;11.20;99.90;;;;;;5027462;28;20095;-69
2022/05/22 00:48:55;;;;;;;9.77;2.40;;;11.20;99.90;;;;;;5028560;28;20152;-66
2022/05/22 00:51:27;;;;;;;8.65;2.25;;;11.10;99.90;;;;;;5027505;28;20048;-67
2022/05/22 00:54:00;;;;;;;6.97;2.10;;;11.10;99.90;;;;;;5027619;28;20124;-66
2022/05/22 00:56:34;;;;;;;9.77;1.98;;;11.10;99.90;;;;;;5023276;28;20555;-67
2022/05/22 00:59:01;;;;;;;7.40;2.95;;;11.00;99.90;;;;;;5032538;28;20034;-68
2022/05/22 01:01:27;;;;;;;6.47;2.00;;;11.00;99.90;;;;;;5044371;28;20029;-68
2022/05/22 01:03:55;;;;;;;9.48;2.40;;;10.90;99.90;;;;;;5044166;28;20072;-69
2022/05/22 01:06:24;;;;;;;9.25;2.10;;;10.90;99.90;;;;;;5044249;28;20052;-68
2022/05/22 01:08:50;;;;;;;5.63;1.80;;;10.90;99.90;;;;;;5041208;28;20120;-66
2022/05/22 01:11:21;;;;;;;6.72;2.08;;;10.80;99.90;;;;;;5030462;28;20037;-68
2022/05/22 01:13:52;;;;;;;5.80;2.30;;;10.80;99.90;;;;;;5029734;28;20494;-65
2022/05/22 01:16:19;;;;;;;5.75;1.92;;;10.80;99.90;;;;;;5029192;28;20121;-67
2022/05/22 01:18:48;;;;;;;9.18;1.77;;;10.80;99.90;;;;;;5028424;28;20508;-68
2022/05/22 01:21:17;;;;;;;4.75;2.30;;;10.80;99.90;;;;;;5022719;28;20461;-66
2022/05/22 01:23:44;;;;;;;8.60;2.28;;;10.70;99.90;;;;;;5021026;28;20044;-67
2022/05/22 01:26:10;;;;;;;6.30;1.80;;;10.70;99.90;;;;;;5025334;28;20072;-68
2022/05/22 01:28:35;;;;;;;8.52;2.17;;;10.70;99.90;;;;;;5027924;28;20056;-68
2022/05/22 01:31:01;;;;;;;6.07;1.83;;;10.70;99.90;;;;;;5027586;28;20551;-66
2022/05/22 01:33:27;;;;;;;6.65;2.03;;;10.70;99.90;;;;;;5026780;28;20127;-67
2022/05/22 01:35:53;;;;;;;5.10;1.63;;;10.70;99.90;;;;;;5020777;28;20040;-68
2022/05/22 01:38:19;;;;;;;7.60;2.22;;;10.70;99.90;;;;;;5022557;28;20099;-66
2022/05/22 01:40:45;;;;;;;6.28;2.28;;;10.60;99.90;;;;;;5028002;28;20493;-68
2022/05/22 01:43:11;;;;;;;9.77;2.15;;;10.60;99.90;;;;;;5024964;28;20091;-67
2022/05/22 01:45:37;;;;;;;5.47;2.00;;;10.60;99.90;;;;;;5027531;28;20113;-66
2022/05/22 01:48:03;;;;;;;8.52;2.00;;;10.60;99.90;;;;;;5026315;28;20061;-68
2022/05/22 01:50:29;;;;;;;7.35;2.10;;;10.50;99.90;;;;;;5027449;28;20033;-66
2022/05/22 01:52:55;;;;;;;7.20;2.33;;;10.50;99.90;;;;;;5026821;28;20060;-68
2022/05/22 01:55:21;;;;;;;6.25;2.03;;;10.50;99.90;;;;;;5022443;28;20034;-66
2022/05/22 01:57:47;;;;;;;6.30;2.42;;;10.50;99.90;;;;;;5024174;28;20049;-67
2022/05/22 02:00:16;;;;;;;14.93;2.80;;;10.50;99.90;;;;;;5026777;28;20040;-66
2022/05/22 02:02:42;;;;;;;4.53;1.92;;;10.50;99.90;;;;;;5020061;28;20281;-67
2022/05/22 02:05:10;;;;;;;5.35;1.95;;;10.50;99.90;;;;;;5026588;28;20029;-68
2022/05/22 02:10:20;;;;;;;8.45;2.03;;;10.50;99.90;;;;;;5021645;28;20043;-66
2022/05/22 02:12:45;;;;;;;7.95;2.47;;;10.50;99.90;;;;;;5028878;28;20049;-66
2022/05/22 02:15:11;;;;;;;10.88;2.25;;;10.50;99.90;;;;;;5030755;28;20101;-65
2022/05/22 02:17:37;;;;;;;6.43;2.08;;;10.50;99.90;;;;;;5023294;28;20453;-67
2022/05/22 02:20:04;;;;;;;11.52;2.97;;;10.50;99.90;;;;;;5030336;28;20040;-68
2022/05/22 02:22:30;;;;;;;6.88;1.95;;;10.50;99.90;;;;;;5030324;28;20029;-66
2022/05/22 02:24:55;;;;;;;8.35;2.28;;;10.50;99.90;;;;;;5028850;28;20034;-67
2022/05/22 02:27:21;;;;;;;4.63;1.30;;;10.50;99.90;;;;;;5031067;28;20029;-66
2022/05/22 02:29:47;;;;;;;7.15;1.80;;;10.40;99.90;;;;;;5030996;28;20396;-66
2022/05/22 02:32:12;;;;;;;6.90;1.75;;;10.40;99.90;;;;;;5030457;28;20164;-68
2022/05/22 02:34:38;;;;;;;4.38;1.70;;;10.40;99.90;;;;;;5030470;28;20094;-67
2022/05/22 02:37:04;;;;;;;6.00;1.50;;;10.40;99.90;;;;;;5030210;28;20072;-69
2022/05/22 02:39:30;;;;;;;6.75;1.88;;;10.40;99.90;;;;;;5030762;28;20758;-68
2022/05/22 02:42:03;;;;;;;5.43;1.90;;;10.40;99.90;;;;;;5029991;28;20061;-66
2022/05/22 02:44:29;;;;;;;4.40;1.75;;;10.30;99.90;;;;;;5029698;28;20029;-66
2022/05/22 02:46:55;;;;;;;18.73;2.28;;;10.30;99.90;;;;;;5030291;28;20041;-67
2022/05/22 02:49:20;;;;;;;4.40;1.48;;;10.30;99.90;;;;;;5030085;28;20117;-67
2022/05/22 02:51:46;;;;;;;6.97;1.83;;;10.30;99.90;;;;;;5030520;28;20249;-66
2022/05/22 02:54:11;;;;;;;7.68;1.55;;;10.30;99.90;;;;;;5029213;28;20099;-66
2022/05/22 02:56:37;;;;;;;10.68;2.25;;;10.30;99.90;;;;;;5027334;28;20113;-68
2022/05/22 02:59:03;;;;;;;4.32;1.50;;;10.30;99.90;;;;;;5029953;28;20033;-67
2022/05/22 03:01:28;;;;;;;4.78;1.75;;;10.30;99.90;;;;;;5030496;28;20419;-66
2022/05/22 03:03:54;;;;;;;7.32;1.73;;;10.30;99.90;;;;;;5028081;28;20033;-67
2022/05/22 03:06:38;;;;;;;6.90;2.33;;;10.30;99.90;;;;;;5029890;28;20036;-66
2022/05/22 03:09:09;;;;;;;7.20;2.00;;;10.30;99.90;;;;;;5029440;28;20043;-67
2022/05/22 03:11:39;;;;;;;8.23;1.55;;;10.30;99.90;;;;;;5019321;28;20436;-67
2022/05/22 03:14:05;;;;;;;8.27;2.33;;;10.30;99.90;;;;;;5029071;28;20044;-66
2022/05/22 03:16:31;;;;;;;3.45;1.38;;;10.20;99.90;;;;;;5029932;28;20030;-69
2022/05/22 03:18:56;;;;;;;3.55;1.30;;;10.20;99.90;;;;;;5030075;28;20034;-66
2022/05/22 03:21:22;;;;;;;4.88;1.88;;;10.20;99.90;;;;;;5028337;28;20129;-66
2022/05/22 03:23:48;;;;;;;6.82;2.08;;;10.20;99.90;;;;;;5029811;28;20037;-66
2022/05/22 03:26:13;;;;;;;5.47;1.23;;;10.20;99.90;;;;;;5028083;28;20120;-66
2022/05/22 03:28:39;;;;;;;5.45;1.25;;;10.20;99.90;;;;;;5029936;28;20049;-66
2022/05/22 03:31:05;;;;;;;6.07;1.40;;;10.10;99.90;;;;;;5029184;28;20048;-66
2022/05/22 03:33:30;;;;;;;3.53;1.35;;;10.10;99.90;;;;;;5028131;28;20033;-67
2022/05/22 03:35:56;;;;;;;8.13;1.48;;;10.10;99.90;;;;;;5029532;28;20088;-66
2022/05/22 03:38:22;;;;;;;6.28;1.48;;;10.00;99.90;;;;;;5029787;28;20045;-70
2022/05/22 03:40:48;;;;;;;6.03;1.75;;;10.00;99.90;;;;;;5029360;28;20045;-66
2022/05/22 03:43:15;;;;;;;6.47;1.63;;;10.00;99.90;;;;;;5027973;28;20052;-66
2022/05/22 03:45:41;;;;;;;6.50;1.40;;;10.00;99.90;;;;;;5030264;28;20041;-68
2022/05/22 03:48:07;;;;;;;5.88;1.35;;;10.00;99.90;;;;;;5028799;28;20030;-68
2022/05/22 03:50:33;;;;;;;4.95;1.77;;;10.00;99.90;;;;;;5029669;28;20379;-67
2022/05/22 03:52:58;;;;;;;6.53;1.88;;;10.00;99.90;;;;;;5027334;28;20029;-66
2022/05/22 03:55:24;;;;;;;7.53;1.65;;;10.00;99.90;;;;;;5026358;28;20492;-67
2022/05/22 03:57:49;;;;;;;10.80;2.13;;;10.10;99.90;;;;;;5028829;28;20045;-67
2022/05/22 04:00:18;;;;;;;6.45;1.73;;;10.10;99.90;;;;;;5028306;28;20389;-68
2022/05/22 04:02:44;;;;;;;7.93;1.90;;;10.20;99.90;;;;;;5029017;28;20088;-66
2022/05/22 04:05:11;;;;;;;7.68;1.85;;;10.20;99.90;;;;;;5028332;28;20364;-67
2022/05/22 04:07:38;;;;;;;6.95;1.63;;;10.30;99.90;;;;;;5029243;28;20125;-67
2022/05/22 04:10:06;;;;;;;6.30;1.75;;;10.20;99.90;;;;;;5028638;28;20632;-67
2022/05/22 04:12:32;;;;;;;4.03;1.25;;;10.20;99.90;;;;;;5028244;28;20452;-68
2022/05/22 04:14:57;;;;;;;3.20;1.40;;;10.20;99.90;;;;;;5028800;28;20033;-66
2022/05/22 04:17:23;;;;;;;5.43;1.55;;;10.30;99.90;;;;;;5029107;28;20052;-67
2022/05/22 04:19:48;;;;;;;5.30;1.45;;;10.30;99.90;;;;;;5029039;28;20037;-67
2022/05/22 04:22:14;;;;;;;5.28;1.50;;;10.30;99.90;;;;;;5028323;28;20059;-71
2022/05/22 04:27:24;;;;;;;3.22;1.30;;;10.40;99.90;;;;;;5028097;28;20416;-67
2022/05/22 04:29:49;;;;;;;4.53;1.48;;;10.50;99.90;;;;;;5029363;28;20034;-66
2022/05/22 04:32:15;;;;;;;4.53;1.40;;;10.60;99.90;;;;;;5027193;28;20033;-68
2022/05/22 04:34:41;;;;;;;5.22;1.60;;;10.60;99.90;;;;;;5027864;28;20083;-66
2022/05/22 04:37:06;;;;;;;7.82;1.60;;;10.70;99.90;;;;;;5027405;28;20083;-66
2022/05/22 04:39:32;;;;;;;4.25;1.40;;;10.80;99.90;;;;;;5028516;28;20504;-69
2022/05/22 04:41:57;;;;;;;7.00;1.65;;;10.80;99.90;;;;;;5027255;28;20120;-66
2022/05/22 04:44:23;;;;;;;4.68;1.58;;;10.80;99.90;;;;;;5027297;28;20045;-66
2022/05/22 04:46:49;;;;;;;3.75;1.60;;;10.90;99.90;;;;;;5028282;28;20052;-66
2022/05/22 04:49:14;;;;;;;5.05;1.70;;;11.00;99.90;;;;;;5027416;28;20045;-68
2022/05/22 04:51:40;;;;;;;4.78;1.40;;;10.90;99.90;;;;;;5028376;28;20029;-66
2022/05/22 04:54:06;;;;;;;6.18;1.80;;;11.00;99.90;;;;;;5026309;28;20037;-66
2022/05/22 04:56:31;;;;;;;6.82;2.15;;;11.00;99.90;;;;;;5024187;28;20040;-69
2022/05/22 04:58:57;;;;;;;6.20;1.67;;;11.00;99.90;;;;;;5027517;28;20405;-67
2022/05/22 05:01:23;;;;;;;4.53;1.98;;;11.10;99.90;;;;;;5027255;28;20405;-67
2022/05/22 05:03:49;;;;;;;7.15;2.75;;;11.10;99.90;;;;;;5027251;28;20044;-66
2022/05/22 05:06:15;;;;;;;4.78;1.95;;;11.20;99.90;;;;;;5026922;28;20386;-67
2022/05/22 05:08:40;;;;;;;5.38;1.88;;;11.20;99.90;;;;;;5027892;28;20033;-66
2022/05/22 05:11:10;;;;;;;6.72;2.13;;;11.30;99.90;;;;;;5026919;28;20068;-66
2022/05/22 05:13:37;;;;;;;4.87;2.57;;;11.30;99.90;;;;;;5025480;28;20500;-68
2022/05/22 05:16:08;;;;;;;7.70;2.67;;;11.30;99.90;;;;;;5025442;28;20107;-69
2022/05/22 05:18:35;;;;;;;7.75;2.65;;;11.50;99.90;;;;;;5027037;28;20460;-68
2022/05/22 05:21:03;;;;;;;12.65;3.95;;;11.60;99.90;;;;;;5025676;28;20034;-67
2022/05/22 05:23:29;;;;;;;7.45;2.90;;;11.70;99.90;;;;;;5019272;28;20508;-67
2022/05/22 05:25:54;;;;;;;12.55;3.88;;;11.80;99.90;;;;;;5019133;28;20045;-68
2022/05/22 05:28:20;;;;;;;10.45;3.10;;;11.90;99.90;;;;;;5024744;28;20041;-66
2022/05/22 05:30:46;;;;;;;8.90;3.13;;;12.10;99.90;;;;;;5027159;28;20041;-66
2022/05/22 05:33:11;;;;;;;8.63;2.95;;;12.20;99.90;;;;;;5025670;28;20477;-66
2022/05/22 05:35:37;;;;;;;7.63;2.30;;;12.30;99.90;;;;;;5027047;28;20076;-66
2022/05/22 05:38:03;;;;;;;9.85;2.70;;;12.50;99.90;;;;;;5026410;28;20125;-71
2022/05/22 05:40:29;;;;;;;7.75;2.95;;;12.80;99.90;;;;;;5025517;28;20446;-66
2022/05/22 05:42:54;;;;;;;12.90;3.05;;;13.00;99.90;;;;;;5024623;28;20050;-66
2022/05/22 05:45:20;;;;;;;6.90;2.72;;;13.40;99.90;;;;;;5025250;28;20053;-69
2022/05/22 05:47:47;;;;;;;7.78;1.98;;;14.00;99.90;;;;;;5026627;28;20045;-67
2022/05/22 05:50:15;;;;;;;4.60;2.08;;;14.40;99.90;;;;;;5024361;28;20497;-67
2022/05/22 05:52:41;;;;;;;6.32;2.17;;;14.90;99.90;;;;;;5026445;28;20030;-70
2022/05/22 05:55:07;;;;;;;4.20;1.65;;;15.30;99.90;;;;;;5024727;28;20034;-67
2022/05/22 05:57:32;;;;;;;7.97;1.85;;;15.70;99.90;;;;;;5026490;28;20441;-69
2022/05/22 05:59:58;;;;;;;11.27;2.30;;;16.30;99.90;;;;;;5026082;28;20037;-68
2022/05/22 06:02:24;;;;;;;5.97;1.52;;;17.00;99.90;;;;;;5025435;28;20046;-68
2022/05/22 06:04:50;;;;;;;4.95;1.83;;;17.60;99.90;;;;;;5026281;28;20039;-67
2022/05/22 06:07:16;;;;;;;3.13;1.60;;;18.00;99.90;;;;;;5025318;28;20025;-67
2022/05/22 06:09:42;;;;;;;8.18;1.55;;;18.40;99.90;;;;;;5024723;28;20033;-67
2022/05/22 06:12:08;;;;;;;5.00;1.67;;;18.70;99.90;;;;;;5025692;28;20032;-67
2022/05/22 06:14:33;;;;;;;7.55;1.88;;;19.10;99.90;;;;;;5020655;28;20105;-65
2022/05/22 06:16:59;;;;;;;6.50;1.55;;;19.30;99.90;;;;;;5017534;28;20061;-67
2022/05/22 06:22:09;;;;;;;9.07;2.00;;;20.20;99.90;;;;;;5008682;28;20601;-67
2022/05/22 06:24:36;;;;;;;3.90;1.75;;;20.50;99.90;;;;;;5006961;28;20481;-68
2022/05/22 06:27:02;;;;;;;4.28;1.63;;;21.00;99.90;;;;;;5007945;28;20030;-68
2022/05/22 06:29:28;;;;;;;4.03;1.75;;;21.50;99.90;;;;;;5013259;28;20057;-69
2022/05/22 06:31:53;;;;;;;2.95;1.40;;;22.50;99.90;;;;;;5002360;28;20080;-68
2022/05/22 06:34:22;;;;;;;7.55;1.85;;;23.30;99.90;;;;;;5003258;28;20045;-69
2022/05/22 06:36:51;;;;;;;5.22;2.00;;;24.30;99.50;;;;;;5007263;28;20048;-68
2022/05/22 06:42:01;;;;;;;6.57;2.47;;;25.50;97.10;;;;;;5006046;28;20152;-68
2022/05/22 06:44:27;;;;;;;5.63;1.90;;;25.90;94.90;;;;;;5015351;28;20109;-69
2022/05/22 06:46:52;;;;;;;8.93;2.17;;;26.20;94.90;;;;;;5018412;28;20041;-69
2022/05/22 06:49:18;;;;;;;13.43;2.22;;;26.70;93.40;;;;;;5025120;28;20378;-69
2022/05/22 06:51:43;;;;;;;7.75;2.30;;;27.20;92.10;;;;;;5026450;28;20042;-69
2022/05/22 06:54:09;;;;;;;7.88;2.30;;;26.90;91.90;;;;;;5024357;28;20084;-70
2022/05/22 06:56:34;;;;;;;6.28;2.38;;;27.10;90.30;;;;;;5015268;28;20038;-70
2022/05/22 06:59:00;;;;;;;4.82;1.77;;;27.00;88.60;;;;;;5022059;28;20042;-68
2022/05/22 07:01:26;;;;;;;4.20;2.25;;;27.40;87.10;;;;;;5027651;28;20033;-69
2022/05/22 07:03:52;;;;;;;7.10;2.28;;;27.40;86.50;;;;;;5028362;28;20553;-69
2022/05/22 07:06:18;;;;;;;7.53;2.30;;;27.80;83.80;;;;;;5027235;28;20128;-69
2022/05/22 07:08:44;;;;;;;8.20;2.92;;;27.60;84.50;;;;;;5026789;28;20037;-69
2022/05/22 07:13:54;;;;;;;6.22;2.50;;;27.40;88.70;;;;;;5021871;28;20249;-69
2022/05/22 07:16:19;;;;;;;5.63;2.33;;;27.50;86.70;;;;;;5024215;28;20660;-69
2022/05/22 07:18:45;;;;;;;6.65;2.35;;;28.00;84.70;;;;;;5027903;28;20044;-68
2022/05/22 07:21:11;;;;;;;8.07;2.40;;;27.90;86.20;;;;;;5027341;28;20397;-69
2022/05/22 07:23:36;;;;;;;7.05;2.25;;;28.00;82.90;;;;;;5026054;28;20057;-68
2022/05/22 07:26:05;;;;;;;5.78;1.73;;;28.20;80.20;;;;;;5023919;28;20048;-69
2022/05/22 07:28:30;;;;;;;6.40;2.17;;;28.40;79.30;;;;;;5028233;28;20091;-69
2022/05/22 07:30:57;;;;;;;5.38;2.38;;;28.70;75.90;;;;;;5026403;28;20505;-69
2022/05/22 07:33:23;;;;;;;5.85;2.10;;;28.70;75.40;;;;;;5026671;28;20094;-68
2022/05/22 07:35:56;;;;;;;5.82;2.05;;;28.50;77.10;;;;;;5027479;28;20049;-68
2022/05/22 07:38:23;;;;;;;4.07;1.70;;;28.60;78.40;;;;;;5019564;28;20396;-68
2022/05/22 07:40:49;;;;;;;6.82;2.22;;;28.20;74.90;;;;;;5019516;28;20246;-69
2022/05/22 07:43:16;;;;;;;6.35;1.98;;;28.30;71.40;;;;;;5024778;28;20513;-69
2022/05/22 07:45:42;;;;;;;8.25;2.28;;;28.20;70.70;;;;;;5027899;28;20037;-68
2022/05/22 07:48:07;;;;;;;7.18;1.50;;;27.90;72.10;;;;;;5027253;28;20041;-69
2022/05/22 07:50:33;;;;;;;6.18;1.83;;;27.80;73.50;;;;;;5028181;28;20045;-68
2022/05/22 07:52:59;;;;;;;7.72;1.58;;;27.60;72.70;;;;;;5027018;28;20033;-68
2022/05/22 07:55:24;;;;;;;7.50;1.83;;;27.60;72.80;;;;;;5021218;28;20169;-68
2022/05/22 07:57:50;;;;;;;7.05;1.60;;;27.00;74.40;;;;;;5027672;28;20096;-68
2022/05/22 08:00:19;;;;;;;4.60;1.30;;;26.60;72.90;;;;;;5026724;28;20110;-68
2022/05/22 08:02:45;;;;;;;6.28;1.70;;;25.80;76.30;;;;;;5026665;28;20413;-68
2022/05/22 08:05:12;;;;;;;7.47;2.00;;;25.40;76.10;;;;;;5026789;28;20036;-68
2022/05/22 08:07:38;;;;;;;9.57;1.88;;;24.80;75.60;;;;;;5027315;28;20025;-68
2022/05/22 08:10:06;;;;;;;8.43;1.77;;;24.50;77.10;;;;;;5011782;28;20034;-72
2022/05/22 08:12:44;;;;;;;5.75;1.33;;;24.00;78.60;;;;;;5009117;28;20042;-68
2022/05/22 08:15:13;;;;;;;12.50;1.80;;;23.50;82.30;;;;;;5023394;28;20025;-68
2022/05/22 08:17:38;;;;;;;11.75;1.60;;;23.20;81.10;;;;;;5025619;28;20030;-67
2022/05/22 08:20:09;;;;;;;5.60;1.15;;;22.80;84.90;;;;;;5026615;28;20048;-69
2022/05/22 08:22:35;;;;;;;8.02;1.50;;;22.60;81.30;;;;;;5025727;28;20029;-68
2022/05/22 08:25:02;;;;;;;3.53;1.00;;;22.50;81.90;;;;;;5024413;28;20083;-69
2022/05/22 08:27:28;;;;;;;5.40;1.58;;;22.50;84.10;;;;;;5026034;28;20033;-67
2022/05/22 08:29:55;;;;;;;3.83;0.90;;;22.50;82.90;;;;;;5027750;28;20098;-67
2022/05/22 08:32:20;;;;;;;6.43;0.95;;;22.30;82.50;;;;;;5026851;28;20068;-67
2022/05/22 08:34:46;;;;;;;4.88;1.13;;;22.20;79.00;;;;;;5026330;28;20485;-67
2022/05/22 08:37:12;;;;;;;5.55;1.05;;;22.20;78.60;;;;;;5026518;28;20038;-68
2022/05/22 08:39:37;;;;;;;6.40;0.75;;;22.10;81.40;;;;;;5027399;28;20061;-68
2022/05/22 08:42:09;;;;;;;5.22;0.80;;;21.80;80.80;;;;;;5023743;28;20505;-67
2022/05/22 08:44:35;;;;;;;3.60;0.80;;;21.80;82.50;;;;;;5026914;28;20038;-68
2022/05/22 08:47:17;;;;;;;4.00;1.00;;;21.70;81.50;;;;;;5019965;28;20033;-70
2022/05/22 08:49:50;;;;;;;3.40;0.90;;;21.60;81.00;;;;;;5022310;28;20041;-67
2022/05/22 08:52:40;;;;;;;8.35;1.20;;;21.60;85.10;;;;;;5014593;28;20112;-68
2022/05/22 08:55:25;;;;;;;6.75;0.88;;;21.70;83.80;;;;;;5014395;28;20397;-68
2022/05/22 09:01:04;;;;;;;7.40;1.40;;;21.90;81.90;;;;;;5020070;28;20036;-67
2022/05/22 09:03:50;;;;;;;;;;;22.00;86.00;;;;;;5027114;28;20966;-68
2022/05/22 09:06:22;;;;;;;4.97;1.00;;;22.00;82.80;;;;;;5018130;28;20008;-67
2022/05/22 09:08:50;;;;;;;3.95;0.95;;;22.00;83.90;;;;;;5020547;28;20551;-68
2022/05/22 09:12:03;;;;;;;2.55;0.93;;;22.00;83.20;;;;;;5021000;28;20060;-69
2022/05/22 09:14:51;;;;;;;4.78;1.58;;;21.90;83.50;;;;;;5022564;28;20037;-67
2022/05/22 09:17:23;;;;;;;6.78;1.27;;;21.90;85.00;;;;;;5019069;28;20044;-67
2022/05/22 09:20:09;;;;;;;3.50;1.55;;;21.70;83.90;;;;;;5017365;28;20112;-67
2022/05/22 09:22:53;;;;;;;5.00;1.25;;;21.60;85.60;;;;;;5024462;28;20482;-67
2022/05/22 09:25:39;;;;;;;5.30;1.30;;;21.70;84.30;;;;;;5015650;28;20057;-69
2022/05/22 09:28:24;;;;;;;7.03;0.90;;;21.60;86.20;;;;;;5017172;28;20100;-69
2022/05/22 09:31:22;;;;;;;6.32;1.45;;;21.70;85.10;;;;;;5020522;28;20056;-68
2022/05/22 09:34:06;;;;;;;4.80;1.02;;;21.80;83.70;;;;;;5018833;28;20534;-67
2022/05/22 09:36:47;;;;;;;3.65;0.63;;;21.80;80.80;;;;;;5026243;28;20037;-69
2022/05/22 09:39:31;;;;;;;3.25;1.02;;;21.90;82.00;;;;;;5017829;28;20861;-68
2022/05/22 09:42:34;;;;;;;8.52;1.40;;;22.00;83.90;;;;;;5022102;28;20495;-68
2022/05/22 09:45:07;;;;;;;8.48;1.10;;;22.20;82.00;;;;;;5022972;28;20045;-67
2022/05/22 09:47:54;;;;;;;3.75;0.77;;;22.30;81.20;;;;;;5026284;28;20041;-68
2022/05/22 09:50:20;;;;;;;7.70;1.23;;;22.40;81.20;;;;;;5019830;28;20060;-67
2022/05/22 09:53:11;;;;;;;5.47;0.98;;;22.50;77.70;;;;;;5026137;28;20490;-68
2022/05/22 09:55:47;;;;;;;5.15;1.50;;;22.20;80.20;;;;;;5020910;28;20108;-67
2022/05/22 09:58:28;;;;;;;4.95;1.50;;;22.20;80.70;;;;;;5017926;28;20037;-68
2022/05/22 10:01:21;;;;;;;2.47;1.13;;;22.20;83.60;;;;;;5021573;28;20044;-68
2022/05/22 10:04:03;;;;;;;5.05;1.05;;;22.30;80.60;;;;;;5018504;28;20048;-67
2022/05/22 10:06:48;;;;;;;8.48;1.98;;;22.40;84.70;;;;;;5025726;28;20029;-67
2022/05/22 10:09:38;;;;;;;5.43;1.55;;;22.50;82.00;;;;;;5018343;28;20121;-67
2022/05/22 10:12:14;;;;;;;5.03;1.00;;;22.60;79.40;;;;;;5023264;28;20041;-68
2022/05/22 10:15:07;;;;;;;5.15;1.05;;;22.40;81.10;;;;;;5024540;28;20441;-67
2022/05/22 10:17:39;;;;;;;6.43;1.10;;;22.40;80.70;;;;;;5024156;28;20060;-67
2022/05/22 10:20:22;;;;;;;4.97;1.05;;;22.50;84.10;;;;;;5025342;28;20565;-70
2022/05/22 10:23:01;;;;;;;2.58;0.70;;;22.70;82.70;;;;;;5018007;28;20041;-69
2022/05/22 10:25:57;;;;;;;3.30;1.30;;;22.60;81.00;;;;;;5017102;28;20037;-67
2022/05/22 10:28:29;;;;;;;3.80;0.50;;;22.30;77.20;;;;;;5020944;28;20112;-67
2022/05/22 10:31:29;;;;;;;5.38;1.17;;;22.30;77.90;;;;;;5026200;28;20099;-67
2022/05/22 10:34:08;;;;;;;4.20;0.80;;;22.40;77.40;;;;;;5023502;28;20038;-67
2022/05/22 10:36:39;;;;;;;9.20;1.48;;;22.40;77.50;;;;;;5029873;28;20065;-67
2022/05/22 10:39:08;;;;;;;4.55;1.35;;;22.50;80.40;;;;;;5029094;28;20572;-68
2022/05/22 10:44:46;;;;;;;;;;;22.70;79.80;;;;;;5023138;28;20044;-67
2022/05/22 10:47:12;;;;;;;11.77;1.63;;;22.70;82.30;;;;;;5028904;28;20011;-67
2022/05/22 10:49:46;;;;;;;5.05;1.45;;;22.80;76.30;;;;;;5021744;28;20084;-67
2022/05/22 10:52:24;;;;;;;4.50;1.20;;;22.70;78.60;;;;;;5021733;28;20029;-68
2022/05/22 10:54:52;;;;;;;7.18;1.48;;;22.70;81.60;;;;;;5024580;28;20044;-67
2022/05/22 10:57:27;;;;;;;4.43;1.20;;;22.90;80.10;;;;;;5026087;28;20030;-67
2022/05/22 10:59:53;;;;;;;12.30;1.77;;;22.70;78.90;;;;;;5028177;28;20038;-67
2022/05/22 11:02:28;;;;;;;5.50;1.05;;;22.50;80.50;;;;;;5028525;28;20040;-68
2022/05/22 11:04:55;;;;;;;5.75;0.90;;;22.50;80.00;;;;;;5029853;28;20037;-67
2022/05/22 11:07:43;;;;;;;2.60;0.75;;;22.50;78.80;;;;;;5028349;28;20025;-68
2022/05/22 11:10:33;;;;;;;3.47;1.00;;;22.70;75.10;;;;;;5019336;28;20128;-67
2022/05/22 11:13:12;;;;;;;6.63;1.05;;;22.50;76.70;;;;;;5024936;28;20042;-67
2022/05/22 11:15:42;;;;;;;6.68;1.25;;;22.50;77.40;;;;;;5029393;28;20038;-68
2022/05/22 11:18:11;;;;;;;6.90;1.00;;;22.60;79.40;;;;;;5020225;28;20036;-68
2022/05/22 11:20:45;;;;;;;3.97;1.20;;;22.60;78.50;;;;;;5021768;28;20033;-68
2022/05/22 11:23:44;;;;;;;5.75;1.52;;;22.50;77.30;;;;;;5027581;28;20021;-67
2022/05/22 11:26:42;;;;;;;6.25;1.30;;;22.50;78.40;;;;;;5005886;28;20069;-67
2022/05/22 11:29:51;;;;;;;10.43;2.13;;;22.40;80.70;;;;;;5020961;28;20063;-68
2022/05/22 11:32:32;;;;;;;5.70;1.52;;;22.30;80.50;;;;;;5022921;28;20034;-67
2022/05/22 11:35:30;;;;;;;5.95;1.13;;;22.30;81.10;;;;;;5028924;28;20071;-66
2022/05/22 11:38:13;;;;;;;6.55;1.60;;;22.40;78.10;;;;;;5025472;28;20497;-67
2022/05/22 11:41:17;;;;;;;2.53;1.33;;;22.40;77.60;;;;;;5021222;28;20754;-67
2022/05/22 11:44:23;;;;;;;2.50;1.00;;;22.40;79.10;;;;;;5020295;28;20033;-66
2022/05/22 11:46:57;;;;;;;8.80;2.10;;;22.40;80.80;;;;;;5024487;28;20025;-66
2022/05/22 11:49:38;;;;;;;9.80;2.13;;;22.50;80.50;;;;;;5027270;28;20452;-66
2022/05/22 11:52:54;;;;;;;5.65;1.90;;;22.40;81.40;;;;;;5019508;28;20375;-69
2022/05/22 11:55:19;;;;;;;5.93;1.30;;;22.40;78.30;;;;;;5008474;28;20121;-72
2022/05/22 11:58:12;;;;;;;6.13;2.20;;;22.10;80.30;;;;;;5006892;28;20130;-67
2022/05/22 12:00:50;;;;;;;8.13;2.25;;;22.10;81.60;;;;;;5011433;28;20034;-66
2022/05/22 12:03:46;;;;;;;3.05;1.33;;;22.20;78.90;;;;;;5008624;28;20038;-67
2022/05/22 12:06:36;;;;;;;8.05;1.98;;;22.20;81.00;;;;;;5012181;28;20033;-68
2022/05/22 12:09:14;;;;;;;4.05;1.63;;;22.30;79.60;;;;;;5027157;28;20770;-66
2022/05/22 12:11:58;;;;;;;8.90;2.00;;;22.20;80.20;;;;;;5021281;28;20057;-66
2022/05/22 12:14:44;;;;;;;4.95;1.45;;;22.20;80.40;;;;;;5025692;28;20044;-66
2022/05/22 12:17:43;;;;;;;5.38;1.45;;;22.30;80.30;;;;;;5012360;28;20042;-68
2022/05/22 12:20:21;;;;;;;5.13;1.42;;;22.30;78.60;;;;;;5010340;28;20106;-66
2022/05/22 12:23:20;;;;;;;6.53;2.17;;;22.20;77.00;;;;;;5026157;28;20045;-66
2022/05/22 12:26:01;;;;;;;6.63;1.83;;;22.00;78.70;;;;;;5013878;28;20048;-68
2022/05/22 12:28:42;;;;;;;5.00;1.50;;;21.80;80.30;;;;;;5025216;28;20033;-68
2022/05/22 12:31:17;;;;;;;4.40;1.10;;;22.00;83.60;;;;;;5019275;28;20037;-69
2022/05/22 12:33:43;;;;;;;10.75;2.85;;;22.10;82.50;;;;;;5006922;28;20112;-68
2022/05/22 12:36:11;;;;;;;4.43;2.00;;;22.20;78.10;;;;;;5011691;28;20653;-68
2022/05/22 12:38:51;;;;;;;4.90;1.88;;;22.10;78.20;;;;;;5015178;28;20436;-68
2022/05/22 12:41:40;;;;;;;4.05;1.35;;;21.90;77.20;;;;;;5024628;28;20029;-68
2022/05/22 12:44:06;;;;;;;6.93;2.13;;;21.80;80.10;;;;;;5016682;28;20478;-72
2022/05/22 12:46:33;;;;;;;6.07;1.80;;;21.90;79.40;;;;;;5015997;28;20033;-68
2022/05/22 12:49:23;;;;;;;3.17;1.48;;;21.90;80.80;;;;;;5023274;28;20052;-68
2022/05/22 12:52:15;;;;;;;8.45;1.90;;;21.90;80.80;;;;;;5020674;28;20041;-68
2022/05/22 12:54:41;;;;;;;6.45;1.85;;;21.90;79.70;;;;;;5012436;28;20037;-69
2022/05/22 12:57:10;;;;;;;8.82;1.95;;;21.90;79.30;;;;;;5022836;28;20567;-67
2022/05/22 12:59:36;;;;;;;4.75;1.90;;;21.90;80.50;;;;;;5024663;28;20116;-69
2022/05/22 13:02:02;;;;;;;7.30;1.27;;;21.90;79.10;;;;;;5026387;28;20562;-68
2022/05/22 13:04:35;;;;;;;3.72;1.55;;;21.80;82.00;;;;;;5024221;28;20083;-68
2022/05/22 13:07:12;;;;;;;7.30;1.73;;;21.90;81.10;;;;;;5016621;28;20029;-68
2022/05/22 13:09:51;;;;;;;6.05;1.60;;;21.80;81.00;;;;;;5019352;28;20056;-67
2022/05/22 13:12:16;;;;;;;10.85;2.25;;;21.80;80.20;;;;;;5017296;28;20096;-68
2022/05/22 13:14:48;;;;;;;6.20;1.52;;;21.80;81.10;;;;;;5019650;28;20029;-68
2022/05/22 13:17:16;;;;;;;4.85;1.92;;;21.70;82.00;;;;;;5025471;28;20095;-68
2022/05/22 13:19:54;;;;;;;4.78;1.65;;;21.60;80.20;;;;;;5024510;28;20121;-68
2022/05/22 13:22:27;;;;;;;3.65;1.63;;;21.80;81.60;;;;;;5023721;28;20065;-67
2022/05/22 13:24:53;;;;;;;6.35;2.50;;;21.90;80.90;;;;;;5023014;28;20563;-68
2022/05/22 13:27:40;;;;;;;4.57;1.48;;;21.90;80.20;;;;;;5024370;28;20033;-67